Time;durP1;ratioP1;P1;durP2;ratioP2;P2;SDS_P1;SDS_P2;PMS_P1;PMS_P2;Temp;Humidity;BMP_temperature;BMP_pressure;BME280_temperature;BME280_humidity;BME280_pressure;Samples;Min_cycle;Max_cycle;Signal;HPM_P1;HPM_P2
2022/04/25 00:02:05;;;;;;;6.85;3.17;;;6.30;99.90;;;;;;5035040;28;20497;-51
2022/04/25 00:04:31;;;;;;;9.95;3.92;;;6.30;99.90;;;;;;5030002;28;20021;-54
2022/04/25 00:06:56;;;;;;;8.52;3.60;;;6.30;99.90;;;;;;5029896;28;20037;-49
2022/04/25 00:09:22;;;;;;;8.18;4.35;;;6.30;99.90;;;;;;5032740;28;20090;-53
2022/04/25 00:11:48;;;;;;;7.50;3.35;;;6.30;99.90;;;;;;5031409;28;20459;-51
2022/04/25 00:14:14;;;;;;;9.20;3.30;;;6.30;99.90;;;;;;5035522;28;20536;-50
2022/04/25 00:16:40;;;;;;;7.20;3.95;;;6.30;99.90;;;;;;5042429;28;20064;-52
2022/04/25 00:19:06;;;;;;;7.60;4.10;;;6.30;99.90;;;;;;5039580;28;20029;-52
2022/04/25 00:21:33;;;;;;;6.47;3.67;;;6.30;99.90;;;;;;5044904;28;20029;-54
2022/04/25 00:23:58;;;;;;;7.75;3.75;;;6.30;99.90;;;;;;5029517;28;20032;-51
2022/04/25 00:26:24;;;;;;;6.55;3.55;;;6.30;99.90;;;;;;5044389;28;20029;-53
2022/04/25 00:28:50;;;;;;;6.72;3.17;;;6.30;99.90;;;;;;5029433;28;20485;-52
2022/04/25 00:31:15;;;;;;;5.82;3.75;;;6.30;99.90;;;;;;5047165;28;20044;-53
2022/04/25 00:33:41;;;;;;;5.78;3.30;;;6.30;99.90;;;;;;5048558;28;20036;-50
2022/04/25 00:36:07;;;;;;;4.72;3.00;;;6.20;99.90;;;;;;5046475;28;20036;-53
2022/04/25 00:38:33;;;;;;;7.13;3.60;;;6.20;99.90;;;;;;5029379;28;20511;-49
2022/04/25 00:40:59;;;;;;;6.95;2.90;;;6.20;99.90;;;;;;5029117;28;20374;-52
2022/04/25 00:43:24;;;;;;;3.45;3.13;;;6.20;99.90;;;;;;5027346;28;20025;-53
2022/04/25 00:45:50;;;;;;;5.28;2.67;;;6.20;99.90;;;;;;5028362;28;20037;-56
2022/04/25 00:48:15;;;;;;;7.22;3.33;;;6.20;99.90;;;;;;5030129;28;20028;-51
2022/04/25 00:50:41;;;;;;;5.50;3.17;;;6.20;99.90;;;;;;5029025;28;20583;-51
2022/04/25 00:53:08;;;;;;;4.20;2.97;;;6.20;99.90;;;;;;5029570;28;20048;-52
2022/04/25 00:55:34;;;;;;;7.35;3.30;;;6.20;99.90;;;;;;5029036;28;20021;-52
2022/04/25 00:58:00;;;;;;;6.90;3.53;;;6.20;99.90;;;;;;5035062;28;20708;-49
2022/04/25 01:00:26;;;;;;;6.32;3.60;;;6.20;99.90;;;;;;5028303;28;20090;-54
2022/04/25 01:02:52;;;;;;;7.90;3.33;;;6.10;99.90;;;;;;5035910;28;20056;-55
2022/04/25 01:05:18;;;;;;;6.05;3.35;;;6.10;99.90;;;;;;5010394;28;20026;-50
2022/04/25 01:07:43;;;;;;;7.63;2.97;;;6.10;99.90;;;;;;5028593;28;20021;-52
2022/04/25 01:10:10;;;;;;;6.15;2.78;;;6.10;99.90;;;;;;5036843;28;20037;-52
2022/04/25 01:12:36;;;;;;;5.18;2.90;;;6.10;99.90;;;;;;5046478;28;20021;-53
2022/04/25 01:15:07;;;;;;;6.35;3.03;;;6.10;99.90;;;;;;5047823;28;20036;-50
2022/04/25 01:17:33;;;;;;;6.63;2.63;;;6.10;99.90;;;;;;5048086;28;20516;-53
2022/04/25 01:19:59;;;;;;;6.10;3.03;;;6.10;99.90;;;;;;5048635;28;20162;-54
2022/04/25 01:22:32;;;;;;;5.63;2.40;;;6.10;99.90;;;;;;5043064;28;20652;-51
2022/04/25 01:27:42;;;;;;;5.63;3.00;;;6.00;99.90;;;;;;5048861;28;20523;-54
2022/04/25 01:30:09;;;;;;;4.53;2.90;;;6.00;99.90;;;;;;5052755;28;20025;-50
2022/04/25 01:32:36;;;;;;;5.28;2.53;;;6.00;99.90;;;;;;5019204;28;20048;-53
2022/04/25 01:35:01;;;;;;;4.63;2.60;;;6.00;99.90;;;;;;5034070;28;20100;-54
2022/04/25 01:37:27;;;;;;;5.82;2.13;;;5.90;99.90;;;;;;5046326;28;20108;-50
2022/04/25 01:39:54;;;;;;;7.85;3.45;;;5.80;99.90;;;;;;5051908;28;20040;-53
2022/04/25 01:42:21;;;;;;;7.65;2.70;;;5.80;99.90;;;;;;5052183;28;20040;-56
2022/04/25 01:44:48;;;;;;;6.57;2.75;;;5.80;99.90;;;;;;5052004;28;20635;-54
2022/04/25 01:47:14;;;;;;;4.38;2.45;;;5.80;99.90;;;;;;5040005;28;20497;-53
2022/04/25 01:49:39;;;;;;;7.93;2.90;;;5.70;99.90;;;;;;5032624;28;20048;-53
2022/04/25 01:52:26;;;;;;;6.47;2.97;;;5.70;99.90;;;;;;5031753;28;20571;-52
2022/04/25 01:54:51;;;;;;;4.15;2.90;;;5.70;99.90;;;;;;5032435;28;20110;-51
2022/04/25 01:57:17;;;;;;;5.20;2.38;;;5.70;99.90;;;;;;5043704;28;20485;-50
2022/04/25 01:59:44;;;;;;;5.22;2.75;;;5.70;99.90;;;;;;5052105;28;20082;-52
2022/04/25 02:02:11;;;;;;;7.78;3.08;;;5.70;99.90;;;;;;5044511;28;20497;-54
2022/04/25 02:04:37;;;;;;;8.48;2.75;;;5.70;99.90;;;;;;5031976;28;20026;-52
2022/04/25 02:07:03;;;;;;;6.82;2.83;;;5.70;99.90;;;;;;5032223;28;20179;-52
2022/04/25 02:09:29;;;;;;;6.18;3.00;;;5.70;99.90;;;;;;5052298;28;20057;-52
2022/04/25 02:11:55;;;;;;;5.07;2.42;;;5.70;99.90;;;;;;5032450;28;20128;-54
2022/04/25 02:14:20;;;;;;;5.82;2.47;;;5.60;99.90;;;;;;5033597;28;20021;-51
2022/04/25 02:16:46;;;;;;;5.18;2.78;;;5.60;99.90;;;;;;5039086;28;20040;-51
2022/04/25 02:19:12;;;;;;;10.18;2.55;;;5.70;99.90;;;;;;5051732;28;20388;-51
2022/04/25 02:21:37;;;;;;;6.55;2.30;;;5.60;99.90;;;;;;5051395;28;20036;-51
2022/04/25 02:24:03;;;;;;;5.43;2.97;;;5.60;99.90;;;;;;5051480;28;20017;-50
2022/04/25 02:26:29;;;;;;;4.13;2.60;;;5.60;99.90;;;;;;5044237;28;20032;-50
2022/04/25 02:28:54;;;;;;;5.53;2.78;;;5.60;99.90;;;;;;5031714;28;20087;-56
2022/04/25 02:31:21;;;;;;;8.05;2.85;;;5.60;99.90;;;;;;5032460;28;20024;-54
2022/04/25 02:33:48;;;;;;;5.18;2.20;;;5.50;99.90;;;;;;5030884;28;20033;-54
2022/04/25 02:36:13;;;;;;;7.63;2.78;;;5.50;99.90;;;;;;5033307;28;20533;-54
2022/04/25 02:38:40;;;;;;;5.18;2.67;;;5.50;99.90;;;;;;5051344;28;20060;-51
2022/04/25 02:41:06;;;;;;;7.80;2.50;;;5.50;99.90;;;;;;5033610;28;20029;-51
2022/04/25 02:43:37;;;;;;;6.63;2.78;;;5.40;99.90;;;;;;5043028;28;20087;-54
2022/04/25 02:46:05;;;;;;;5.72;2.13;;;5.50;99.90;;;;;;5031216;28;20018;-57
2022/04/25 02:48:31;;;;;;;7.22;2.70;;;5.50;99.90;;;;;;5019715;28;20021;-54
2022/04/25 02:50:57;;;;;;;5.30;2.75;;;5.40;99.90;;;;;;5032775;28;20520;-55
2022/04/25 02:53:24;;;;;;;6.07;2.88;;;5.40;99.90;;;;;;5030981;28;20103;-53
2022/04/25 02:55:51;;;;;;;5.97;2.60;;;5.30;99.90;;;;;;5031628;28;20104;-50
2022/04/25 02:58:17;;;;;;;5.57;2.42;;;5.40;99.90;;;;;;5042166;28;20033;-50
2022/04/25 03:00:45;;;;;;;4.18;2.28;;;5.40;99.90;;;;;;5049119;28;20021;-52
2022/04/25 03:03:11;;;;;;;5.13;2.25;;;5.30;99.90;;;;;;5044187;28;20021;-54
2022/04/25 03:05:37;;;;;;;6.93;2.75;;;5.40;99.90;;;;;;5031116;28;20022;-52
2022/04/25 03:08:02;;;;;;;2.70;2.13;;;5.30;99.90;;;;;;5031958;28;20030;-51
2022/04/25 03:10:28;;;;;;;6.60;2.72;;;5.30;99.90;;;;;;5031163;28;20481;-50
2022/04/25 03:12:53;;;;;;;6.47;3.25;;;5.30;99.90;;;;;;5031930;28;20052;-54
2022/04/25 03:15:19;;;;;;;5.68;2.20;;;5.30;99.90;;;;;;5045698;28;20386;-55
2022/04/25 03:17:44;;;;;;;7.10;3.28;;;5.30;99.90;;;;;;5036884;28;20041;-53
2022/04/25 03:20:10;;;;;;;5.20;2.55;;;5.30;99.90;;;;;;5050625;28;20040;-53
2022/04/25 03:22:36;;;;;;;7.57;2.63;;;5.30;99.90;;;;;;5049897;28;20017;-52
2022/04/25 03:25:01;;;;;;;6.75;2.47;;;5.30;99.90;;;;;;5050689;28;20029;-53
2022/04/25 03:27:27;;;;;;;5.32;2.53;;;5.30;99.90;;;;;;5045362;28;20083;-49
2022/04/25 03:29:52;;;;;;;5.03;2.85;;;5.30;99.90;;;;;;5030845;28;20136;-49
2022/04/25 03:32:18;;;;;;;6.95;2.63;;;5.30;99.90;;;;;;5031264;28;20029;-53
2022/04/25 03:34:44;;;;;;;5.68;2.28;;;5.30;99.90;;;;;;5030751;28;20037;-55
2022/04/25 03:37:13;;;;;;;5.47;2.13;;;5.20;99.90;;;;;;5031320;28;20109;-51
2022/04/25 03:39:38;;;;;;;4.53;2.58;;;5.20;99.90;;;;;;5050449;28;20043;-53
2022/04/25 03:42:04;;;;;;;6.35;2.63;;;5.20;99.90;;;;;;5049959;28;20108;-51
2022/04/25 03:44:29;;;;;;;4.80;2.08;;;5.20;99.90;;;;;;5049481;28;20029;-52
2022/04/25 03:46:55;;;;;;;5.93;2.45;;;5.20;99.90;;;;;;5049961;28;20029;-51
2022/04/25 03:49:21;;;;;;;6.15;2.20;;;5.20;99.90;;;;;;5031447;28;20030;-53
2022/04/25 03:51:47;;;;;;;5.18;2.30;;;5.20;99.90;;;;;;5030801;28;20040;-51
2022/04/25 03:57:09;;;;;;;5.75;2.70;;;5.10;99.90;;;;;;5030106;28;20185;-54
2022/04/25 03:57:10;;;;;;;6.47;2.90;;;5.10;99.90;;;;;;5030109;28;20033;-52
2022/04/25 03:59:36;;;;;;;3.97;2.88;;;5.10;99.90;;;;;;5010088;28;20025;-52
2022/04/25 04:02:04;;;;;;;6.80;2.33;;;5.10;99.90;;;;;;5022967;28;20033;-51
2022/04/25 04:04:30;;;;;;;6.60;2.67;;;5.10;99.90;;;;;;5030267;28;20025;-51
2022/04/25 04:06:55;;;;;;;3.28;2.13;;;5.10;99.90;;;;;;5030337;28;20477;-51
2022/04/25 04:12:06;;;;;;;6.93;3.15;;;5.10;99.90;;;;;;5030011;28;20032;-53
2022/04/25 04:14:31;;;;;;;7.50;2.97;;;5.00;99.90;;;;;;5029834;28;20030;-53
2022/04/25 04:16:58;;;;;;;5.45;2.95;;;5.00;99.90;;;;;;5030240;28;20112;-50
2022/04/25 04:19:24;;;;;;;4.97;2.75;;;5.00;99.90;;;;;;5029867;28;20409;-51
2022/04/25 04:21:50;;;;;;;5.90;2.80;;;4.90;99.90;;;;;;5029278;28;20025;-54
2022/04/25 04:24:15;;;;;;;9.07;3.28;;;4.90;99.90;;;;;;5029744;28;20056;-51
2022/04/25 04:26:42;;;;;;;17.33;3.65;;;4.90;99.90;;;;;;5030493;28;20104;-54
2022/04/25 04:29:08;;;;;;;5.20;2.95;;;4.90;99.90;;;;;;5029588;28;20492;-51
2022/04/25 04:31:33;;;;;;;6.88;3.60;;;4.90;99.90;;;;;;5029215;28;20029;-52
2022/04/25 04:33:59;;;;;;;7.63;3.22;;;4.90;99.90;;;;;;5029518;28;20040;-55
2022/04/25 04:36:26;;;;;;;7.45;3.60;;;4.90;99.90;;;;;;5027911;28;20385;-53
2022/04/25 04:38:52;;;;;;;6.03;3.40;;;4.90;99.90;;;;;;5029822;28;20018;-53
2022/04/25 04:41:17;;;;;;;6.47;3.67;;;4.90;99.90;;;;;;5029304;28;20030;-54
2022/04/25 04:43:43;;;;;;;7.45;3.08;;;4.80;99.90;;;;;;5029574;28;20025;-53
2022/04/25 04:46:09;;;;;;;5.40;3.00;;;4.70;99.90;;;;;;5029268;28;20459;-51
2022/04/25 04:48:35;;;;;;;5.60;2.67;;;4.80;99.90;;;;;;5030178;28;20018;-52
2022/04/25 04:51:00;;;;;;;5.40;3.38;;;4.80;99.90;;;;;;5029636;28;20509;-54
2022/04/25 04:53:26;;;;;;;5.78;3.45;;;4.80;99.90;;;;;;5029292;28;20026;-50
2022/04/25 04:55:52;;;;;;;9.20;2.90;;;4.70;99.90;;;;;;5029143;28;20608;-53
2022/04/25 04:58:21;;;;;;;8.88;3.80;;;4.80;99.90;;;;;;5028810;28;20028;-52
2022/04/25 05:00:47;;;;;;;10.52;3.47;;;4.70;99.90;;;;;;5029535;28;20021;-54
2022/04/25 05:03:16;;;;;;;6.97;3.85;;;4.70;99.90;;;;;;5028942;28;20014;-52
2022/04/25 05:05:42;;;;;;;5.28;3.17;;;4.70;99.90;;;;;;5029210;28;20036;-54
2022/04/25 05:08:08;;;;;;;7.85;4.28;;;4.70;99.90;;;;;;5011149;28;20128;-55
2022/04/25 05:10:33;;;;;;;7.05;3.20;;;4.70;99.90;;;;;;5040592;28;20116;-51
2022/04/25 05:12:59;;;;;;;8.05;4.07;;;4.70;99.90;;;;;;5032170;28;20021;-50
2022/04/25 05:15:25;;;;;;;10.15;3.85;;;4.80;99.90;;;;;;5029157;28;20515;-53
2022/04/25 05:17:53;;;;;;;8.13;3.85;;;4.80;99.90;;;;;;5031758;28;20540;-55
2022/04/25 05:20:20;;;;;;;8.55;4.00;;;4.80;99.90;;;;;;5049064;28;20048;-53
2022/04/25 05:22:47;;;;;;;7.28;3.72;;;4.80;99.90;;;;;;5030700;28;20443;-54
2022/04/25 05:25:17;;;;;;;5.93;3.47;;;4.90;99.90;;;;;;5030002;28;20033;-55
2022/04/25 05:27:45;;;;;;;2.95;2.50;;;5.00;99.90;;;;;;5027731;28;20029;-53
2022/04/25 05:30:12;;;;;;;7.25;3.90;;;5.00;99.90;;;;;;5049266;28;20025;-53
2022/04/25 05:32:46;;;;;;;7.35;4.13;;;5.10;99.90;;;;;;5046772;28;20040;-54
2022/04/25 05:35:13;;;;;;;6.13;3.40;;;5.20;99.90;;;;;;5048780;28;20017;-53
2022/04/25 05:37:39;;;;;;;5.72;3.40;;;5.20;99.90;;;;;;5031480;28;20043;-54
2022/04/25 05:40:06;;;;;;;6.63;3.45;;;5.30;99.90;;;;;;5030294;28;20034;-52
2022/04/25 05:42:32;;;;;;;6.53;3.40;;;5.30;99.90;;;;;;5043868;28;20481;-56
2022/04/25 05:44:59;;;;;;;5.68;2.90;;;5.40;99.90;;;;;;5028710;28;20041;-53
2022/04/25 05:47:25;;;;;;;5.85;3.63;;;5.50;99.90;;;;;;5028864;28;20038;-50
2022/04/25 05:52:36;;;;;;;3.67;3.13;;;5.60;99.90;;;;;;5037865;28;20075;-52
2022/04/25 05:55:02;;;;;;;3.72;2.92;;;5.70;99.90;;;;;;5048359;28;20021;-54
2022/04/25 05:57:28;;;;;;;5.13;2.72;;;5.80;99.90;;;;;;5029737;28;20419;-54
2022/04/25 05:59:53;;;;;;;6.03;2.83;;;5.90;99.90;;;;;;5013487;28;20034;-56
2022/04/25 06:02:19;;;;;;;7.47;3.05;;;6.00;99.90;;;;;;5039709;28;20116;-51
2022/04/25 06:04:45;;;;;;;6.40;2.92;;;6.10;99.90;;;;;;5030558;28;20028;-49
2022/04/25 06:07:10;;;;;;;4.85;2.70;;;6.20;99.90;;;;;;5031108;28;20029;-53
2022/04/25 06:09:36;;;;;;;2.55;2.20;;;6.20;99.90;;;;;;5051970;28;20036;-53
2022/04/25 06:12:04;;;;;;;4.95;2.55;;;6.30;99.90;;;;;;5051979;28;20013;-52
2022/04/25 06:14:34;;;;;;;4.85;2.40;;;6.40;99.90;;;;;;5051571;28;20028;-51
2022/04/25 06:17:00;;;;;;;4.68;2.28;;;6.40;99.90;;;;;;5052274;28;20067;-54
2022/04/25 06:19:26;;;;;;;6.90;2.88;;;6.50;99.90;;;;;;5051898;28;20493;-53
2022/04/25 06:21:51;;;;;;;2.75;2.05;;;6.60;99.90;;;;;;5051745;28;20086;-54
2022/04/25 06:24:18;;;;;;;4.97;2.70;;;6.70;99.90;;;;;;5051752;28;20113;-52
2022/04/25 06:26:43;;;;;;;5.43;2.45;;;6.70;99.90;;;;;;5051448;28;20036;-55
2022/04/25 06:29:09;;;;;;;6.28;2.50;;;6.80;99.90;;;;;;5051854;28;20025;-55
2022/04/25 06:31:35;;;;;;;6.35;3.20;;;6.90;99.90;;;;;;5049425;28;20083;-55
2022/04/25 06:34:01;;;;;;;3.58;1.95;;;6.90;99.90;;;;;;5051222;28;20063;-52
2022/04/25 06:36:26;;;;;;;5.68;2.55;;;7.10;99.90;;;;;;5051742;28;20043;-54
2022/04/25 06:38:52;;;;;;;2.92;2.45;;;7.20;99.90;;;;;;5050183;28;20116;-53
2022/04/25 06:41:18;;;;;;;4.18;2.13;;;7.30;99.90;;;;;;5042334;28;20090;-55
2022/04/25 06:43:43;;;;;;;5.00;2.83;;;7.40;99.90;;;;;;5029380;28;20546;-53
2022/04/25 06:46:09;;;;;;;3.50;2.17;;;7.60;99.90;;;;;;5031924;28;20186;-55
2022/04/25 06:48:35;;;;;;;2.80;2.13;;;7.60;99.90;;;;;;5031630;28;20053;-52
2022/04/25 06:51:01;;;;;;;4.13;2.88;;;7.80;99.90;;;;;;5031623;28;20030;-55
2022/04/25 06:53:27;;;;;;;5.47;2.25;;;7.90;99.90;;;;;;5046333;28;20116;-55
2022/04/25 06:55:53;;;;;;;4.35;2.55;;;8.00;99.90;;;;;;5031221;28;20553;-52
2022/04/25 06:58:18;;;;;;;4.88;2.50;;;8.10;99.90;;;;;;5044458;28;20025;-50
2022/04/25 07:00:46;;;;;;;3.55;2.30;;;8.30;99.90;;;;;;5048889;28;20029;-53
2022/04/25 07:03:12;;;;;;;3.20;2.30;;;8.50;99.90;;;;;;5048839;28;20055;-51
2022/04/25 07:05:37;;;;;;;5.07;2.70;;;8.80;99.90;;;;;;5050712;28;20027;-51
2022/04/25 07:08:03;;;;;;;5.57;2.40;;;9.00;99.90;;;;;;5050984;28;20115;-51
2022/04/25 07:10:29;;;;;;;6.25;3.08;;;9.20;99.90;;;;;;5038798;28;20500;-53
2022/04/25 07:12:56;;;;;;;2.28;2.08;;;9.40;99.90;;;;;;5014026;28;20039;-54
2022/04/25 07:15:22;;;;;;;3.83;2.20;;;9.50;99.90;;;;;;5030623;28;20026;-50
2022/04/25 07:17:50;;;;;;;3.15;2.25;;;9.60;99.90;;;;;;5031194;28;20044;-49
2022/04/25 07:20:16;;;;;;;3.05;2.28;;;9.80;99.90;;;;;;5031171;28;20116;-53
2022/04/25 07:30:54;;;;;;;4.10;2.35;;;10.20;99.90;;;;;;5048079;28;20027;-52
2022/04/25 07:33:19;;;;;;;4.78;2.20;;;10.30;99.90;;;;;;5043647;28;20502;-55
2022/04/25 07:35:45;;;;;;;6.15;2.88;;;10.40;99.90;;;;;;5034427;28;20493;-56
2022/04/25 07:38:11;;;;;;;4.93;2.28;;;10.50;99.90;;;;;;5050481;28;20575;-55
2022/04/25 07:40:36;;;;;;;4.40;2.40;;;10.70;99.90;;;;;;5044280;28;20440;-54
2022/04/25 07:43:03;;;;;;;3.53;2.33;;;10.80;99.90;;;;;;5051081;28;20158;-54
2022/04/25 07:45:29;;;;;;;5.55;2.67;;;10.80;99.90;;;;;;5044376;28;20252;-56
2022/04/25 07:47:54;;;;;;;5.95;3.03;;;10.80;99.90;;;;;;5041918;28;20048;-54
2022/04/25 07:50:23;;;;;;;4.05;2.60;;;11.00;99.90;;;;;;5030264;28;20069;-55
2022/04/25 07:52:50;;;;;;;2.85;2.22;;;11.10;99.90;;;;;;5038801;28;20104;-57
2022/04/25 07:55:16;;;;;;;6.22;3.22;;;11.20;99.90;;;;;;5035719;28;20022;-53
2022/04/25 07:57:42;;;;;;;9.20;2.80;;;11.20;99.90;;;;;;5038258;28;20079;-51
2022/04/25 08:00:08;;;;;;;4.88;2.92;;;11.20;99.90;;;;;;5050435;28;20404;-52
2022/04/25 08:02:33;;;;;;;4.85;1.88;;;11.10;99.90;;;;;;5043720;28;20021;-49
2022/04/25 08:04:59;;;;;;;4.15;2.80;;;11.20;99.90;;;;;;5030372;28;20048;-52
2022/04/25 08:07:24;;;;;;;3.20;2.40;;;11.00;99.90;;;;;;5029974;28;20035;-48
2022/04/25 08:09:50;;;;;;;2.67;2.10;;;11.30;99.90;;;;;;5029855;28;20056;-54
2022/04/25 08:18:04;;;;;;;7.65;2.88;;;11.80;99.90;;;;;;5030109;28;20087;-57
2022/04/25 08:20:35;;;;;;;4.00;2.58;;;12.00;99.90;;;;;;5030912;28;20112;-56
2022/04/25 08:23:02;;;;;;;6.25;2.70;;;12.20;99.90;;;;;;5029265;28;20135;-55
2022/04/25 08:25:30;;;;;;;4.88;2.92;;;12.30;99.90;;;;;;5029506;28;20053;-54
2022/04/25 08:27:59;;;;;;;3.90;2.40;;;12.20;99.90;;;;;;5029679;28;20032;-51
2022/04/25 08:30:25;;;;;;;4.07;2.78;;;12.30;99.90;;;;;;5033351;28;20021;-51
2022/04/25 08:32:51;;;;;;;3.95;2.45;;;12.10;99.90;;;;;;5030269;28;20555;-50
2022/04/25 08:35:17;;;;;;;4.57;2.45;;;12.30;99.90;;;;;;5029140;28;20083;-53
2022/04/25 08:37:42;;;;;;;5.60;2.53;;;12.40;99.90;;;;;;5036704;28;20036;-54
2022/04/25 08:40:09;;;;;;;5.65;2.50;;;12.40;99.90;;;;;;5029692;28;20031;-51
2022/04/25 08:42:35;;;;;;;7.20;2.25;;;12.60;99.90;;;;;;5029306;28;20032;-55
2022/04/25 08:45:05;;;;;;;5.53;2.28;;;12.80;99.90;;;;;;5040762;28;20037;-51
2022/04/25 08:47:37;;;;;;;4.47;2.70;;;12.60;99.90;;;;;;5049197;28;20108;-56
2022/04/25 08:50:03;;;;;;;2.65;2.20;;;12.90;99.90;;;;;;5031328;28;20082;-55
2022/04/25 08:52:29;;;;;;;5.00;2.38;;;13.20;99.90;;;;;;5041725;28;20695;-52
2022/04/25 08:54:57;;;;;;;4.70;2.67;;;13.20;99.90;;;;;;5036077;28;20034;-56
2022/04/25 08:57:28;;;;;;;4.45;2.25;;;12.90;99.90;;;;;;5029155;28;20180;-51
2022/04/25 08:59:56;;;;;;;2.97;2.30;;;12.90;99.90;;;;;;5029374;28;20022;-53
2022/04/25 09:02:22;;;;;;;6.65;2.88;;;12.90;99.90;;;;;;5034727;28;20132;-52
2022/04/25 09:04:50;;;;;;;7.50;2.55;;;13.10;99.90;;;;;;5049131;28;20532;-53
2022/04/25 09:07:17;;;;;;;6.40;2.20;;;13.30;99.90;;;;;;5048840;28;20032;-54
2022/04/25 09:09:43;;;;;;;5.50;2.70;;;13.40;99.90;;;;;;5048897;28;20033;-53
2022/04/25 09:12:12;;;;;;;7.13;2.70;;;13.30;99.90;;;;;;5030694;28;20112;-54
2022/04/25 09:14:40;;;;;;;4.45;2.58;;;13.30;99.90;;;;;;5046958;28;20311;-53
2022/04/25 09:17:06;;;;;;;2.15;1.90;;;13.40;99.90;;;;;;5048259;28;20032;-54
2022/04/25 09:19:33;;;;;;;6.07;2.38;;;13.50;99.90;;;;;;5046790;28;20025;-55
2022/04/25 09:21:59;;;;;;;4.65;2.53;;;13.70;99.90;;;;;;5029121;28;20026;-53
2022/04/25 09:24:30;;;;;;;4.45;2.45;;;13.60;99.90;;;;;;5027247;28;20404;-54
2022/04/25 09:27:11;;;;;;;3.20;2.40;;;13.50;99.80;;;;;;5028508;28;20048;-52
2022/04/25 09:29:38;;;;;;;3.50;2.58;;;13.80;99.70;;;;;;5028205;28;20029;-56
2022/04/25 09:32:05;;;;;;;4.30;2.33;;;13.80;99.20;;;;;;5028289;28;20489;-51
2022/04/25 09:37:16;;;;;;;2.08;1.77;;;14.00;99.90;;;;;;5029106;28;20040;-52
2022/04/25 09:39:42;;;;;;;3.50;2.35;;;14.30;98.70;;;;;;5024288;28;20449;-51
2022/04/25 09:42:09;;;;;;;3.63;1.98;;;14.60;98.20;;;;;;5026365;28;20121;-54
2022/04/25 09:44:59;;;;;;;5.88;2.47;;;14.40;98.00;;;;;;5019771;28;20040;-53
2022/04/25 09:47:32;;;;;;;5.53;2.40;;;14.20;97.80;;;;;;5020207;28;20595;-55
2022/04/25 09:50:02;;;;;;;3.15;1.85;;;14.10;98.20;;;;;;5023325;28;20397;-51
2022/04/25 09:52:28;;;;;;;3.42;2.30;;;14.30;99.00;;;;;;5021394;28;20119;-52
2022/04/25 09:54:53;;;;;;;2.45;1.75;;;14.50;97.60;;;;;;5023906;28;20063;-52
2022/04/25 09:57:30;;;;;;;2.25;2.00;;;14.70;97.60;;;;;;5025824;28;20038;-50
2022/04/25 09:59:59;;;;;;;3.55;2.33;;;14.50;95.90;;;;;;5022170;28;20022;-50
2022/04/25 10:02:25;;;;;;;2.55;1.90;;;14.30;97.00;;;;;;5029783;28;20063;-50
2022/04/25 10:04:51;;;;;;;3.15;2.22;;;14.40;96.10;;;;;;5043845;28;20118;-54
2022/04/25 10:07:20;;;;;;;2.00;1.80;;;14.30;96.50;;;;;;5052231;28;20027;-51
2022/04/25 10:09:47;;;;;;;2.20;2.00;;;14.50;95.40;;;;;;5052090;28;20029;-52
2022/04/25 10:12:13;;;;;;;2.47;1.60;;;14.10;95.60;;;;;;5051342;28;20095;-52
2022/04/25 10:14:40;;;;;;;3.70;2.20;;;14.10;95.50;;;;;;5051531;28;20148;-50
2022/04/25 10:17:06;;;;;;;1.85;1.65;;;13.90;96.30;;;;;;5051582;28;20579;-51
2022/04/25 10:19:31;;;;;;;1.85;1.73;;;14.00;96.50;;;;;;5042542;28;20030;-50
2022/04/25 10:21:57;;;;;;;2.47;1.90;;;14.10;96.30;;;;;;5031832;28;20571;-50
2022/04/25 10:24:23;;;;;;;4.10;2.00;;;14.10;95.80;;;;;;5031767;28;20041;-53
2022/04/25 10:26:50;;;;;;;2.25;2.05;;;14.10;96.00;;;;;;5031807;28;20079;-52
2022/04/25 10:29:21;;;;;;;5.03;1.65;;;14.30;96.30;;;;;;5031832;28;20091;-50
2022/04/25 10:31:49;;;;;;;3.38;1.70;;;14.30;95.30;;;;;;5031755;28;20026;-53
2022/04/25 10:34:16;;;;;;;2.28;2.05;;;14.10;95.60;;;;;;5032046;28;20036;-50
2022/04/25 10:36:43;;;;;;;2.72;2.33;;;14.20;95.50;;;;;;5032092;28;20449;-53
2022/04/25 10:39:27;;;;;;;2.92;2.13;;;14.10;94.80;;;;;;5031840;28;20026;-51
2022/04/25 10:44:37;;;;;;;2.70;2.20;;;14.40;96.80;;;;;;5031592;28;20036;-53
2022/04/25 10:47:05;;;;;;;3.65;2.03;;;14.80;96.10;;;;;;5031262;28;20025;-50
2022/04/25 10:49:36;;;;;;;2.08;1.80;;;14.60;94.70;;;;;;5031577;28;20018;-51
2022/04/25 10:52:04;;;;;;;4.53;1.98;;;14.80;95.80;;;;;;5030789;28;20028;-54
2022/04/25 10:54:49;;;;;;;3.13;2.30;;;14.90;94.60;;;;;;5031048;28;20036;-52
2022/04/25 10:57:16;;;;;;;3.17;2.10;;;14.60;94.30;;;;;;5046958;28;20548;-52
2022/04/25 10:59:42;;;;;;;2.10;1.90;;;14.50;94.70;;;;;;5031537;28;20029;-52
2022/04/25 11:02:20;;;;;;;3.17;2.45;;;14.50;94.90;;;;;;5030909;28;20025;-55
2022/04/25 11:04:46;;;;;;;2.15;1.70;;;14.50;94.10;;;;;;5046604;28;20022;-55
2022/04/25 11:07:22;;;;;;;2.20;1.90;;;14.60;93.10;;;;;;5031267;28;20032;-50
2022/04/25 11:09:48;;;;;;;;;;;14.60;93.20;;;;;;5031719;28;20017;-51
2022/04/25 11:12:14;;;;;;;2.10;1.90;;;14.70;93.90;;;;;;5031389;28;19909;-54
2022/04/25 11:14:57;;;;;;;2.90;1.75;;;14.90;93.30;;;;;;5031182;28;20025;-56
2022/04/25 11:17:23;;;;;;;2.40;1.50;;;14.90;92.40;;;;;;5031302;28;20038;-52
2022/04/25 11:19:51;;;;;;;2.47;1.30;;;15.00;93.30;;;;;;5031614;28;20131;-55
2022/04/25 11:22:35;;;;;;;3.75;1.80;;;15.30;93.90;;;;;;5030740;28;20071;-52
2022/04/25 11:25:22;;;;;;;2.00;1.50;;;15.50;93.30;;;;;;5030817;28;20052;-53
2022/04/25 11:28:10;;;;;;;2.65;2.38;;;15.50;92.00;;;;;;5030746;28;20033;-56
2022/04/25 11:30:37;;;;;;;2.58;1.77;;;15.10;91.40;;;;;;5030980;28;20102;-57
2022/04/25 11:33:06;;;;;;;3.22;1.85;;;15.00;91.70;;;;;;5030596;28;20454;-49
2022/04/25 11:35:32;;;;;;;2.67;1.60;;;15.00;91.90;;;;;;5030723;28;20060;-52
2022/04/25 11:37:58;;;;;;;4.60;2.00;;;15.00;92.30;;;;;;5030222;28;20036;-55
2022/04/25 11:40:26;;;;;;;6.97;2.10;;;15.00;91.80;;;;;;5029555;28;20026;-57
2022/04/25 11:42:53;;;;;;;5.22;2.13;;;15.00;92.40;;;;;;5030387;28;20030;-55
2022/04/25 11:45:19;;;;;;;2.10;1.70;;;15.10;91.70;;;;;;5030427;28;20030;-53
2022/04/25 11:47:45;;;;;;;1.67;1.55;;;15.20;91.40;;;;;;5030475;28;20033;-53
2022/04/25 11:50:11;;;;;;;2.67;2.00;;;15.20;92.00;;;;;;5030283;28;20022;-53
2022/04/25 11:52:54;;;;;;;2.92;2.15;;;15.20;91.80;;;;;;5046445;28;20029;-52
2022/04/25 11:55:32;;;;;;;2.38;2.05;;;15.40;90.90;;;;;;5049621;28;20378;-55
2022/04/25 11:57:58;;;;;;;2.00;1.70;;;15.20;91.20;;;;;;5050406;28;20028;-56
2022/04/25 12:00:24;;;;;;;2.80;1.98;;;15.20;91.00;;;;;;5048387;28;20033;-52
2022/04/25 12:02:50;;;;;;;3.85;1.70;;;14.90;90.40;;;;;;5049783;28;20085;-54
2022/04/25 12:05:26;;;;;;;2.60;2.03;;;14.70;90.70;;;;;;5049178;28;20059;-55
2022/04/25 12:16:09;;;;;;;2.83;2.05;;;14.90;90.40;;;;;;5030051;28;20577;-51
2022/04/25 12:18:47;;;;;;;2.45;2.05;;;15.10;90.30;;;;;;5029937;28;20100;-57
2022/04/25 12:21:13;;;;;;;2.17;1.98;;;15.20;89.90;;;;;;5033898;28;20018;-52
2022/04/25 12:23:45;;;;;;;3.10;1.83;;;15.20;87.70;;;;;;5023027;28;20021;-56
2022/04/25 12:26:19;;;;;;;2.50;2.20;;;15.10;88.60;;;;;;5029684;28;20417;-57
2022/04/25 12:28:59;;;;;;;2.42;1.63;;;15.00;87.50;;;;;;5029762;28;20022;-55
2022/04/25 12:31:26;;;;;;;2.95;2.10;;;15.20;86.70;;;;;;5032652;28;20064;-54
2022/04/25 12:33:52;;;;;;;3.00;2.35;;;15.00;88.00;;;;;;5041745;28;20025;-52
2022/04/25 12:36:27;;;;;;;2.30;2.10;;;15.00;89.10;;;;;;5027614;28;20370;-55
2022/04/25 12:39:00;;;;;;;1.90;1.75;;;15.00;90.00;;;;;;5029731;28;20044;-56
2022/04/25 12:41:27;;;;;;;2.60;2.10;;;15.00;89.30;;;;;;5030241;28;20033;-57
2022/04/25 12:43:54;;;;;;;2.83;1.98;;;15.00;89.90;;;;;;5040467;28;20036;-54
2022/04/25 12:46:44;;;;;;;2.60;1.90;;;15.00;89.90;;;;;;5029674;28;20440;-49
2022/04/25 12:49:17;;;;;;;3.05;1.63;;;15.20;88.50;;;;;;5011746;28;20674;-52
2022/04/25 12:51:45;;;;;;;2.47;1.90;;;15.20;88.10;;;;;;5029255;28;20021;-55
2022/04/25 12:54:30;;;;;;;2.28;2.05;;;15.40;89.70;;;;;;5013484;28;20017;-55
2022/04/25 12:57:24;;;;;;;2.38;2.17;;;15.30;87.50;;;;;;5026906;28;20025;-55
2022/04/25 12:59:53;;;;;;;4.53;2.20;;;15.20;90.00;;;;;;5037954;28;20044;-51
2022/04/25 13:02:39;;;;;;;2.30;2.10;;;15.50;89.50;;;;;;5047043;28;20128;-52
2022/04/25 13:05:05;;;;;;;2.42;1.90;;;15.80;88.00;;;;;;5035478;28;20029;-54
2022/04/25 13:07:40;;;;;;;3.35;2.25;;;15.80;85.80;;;;;;5011821;28;20025;-51
2022/04/25 13:10:24;;;;;;;2.95;2.10;;;15.80;86.40;;;;;;5030563;28;20032;-55
2022/04/25 13:12:53;;;;;;;5.97;2.38;;;15.50;85.30;;;;;;5028859;28;20045;-56
2022/04/25 13:15:29;;;;;;;5.18;2.08;;;15.20;87.30;;;;;;5042145;28;20051;-50
2022/04/25 13:17:55;;;;;;;6.55;2.47;;;15.20;90.20;;;;;;5049659;28;20064;-54
2022/04/25 13:20:23;;;;;;;3.60;2.08;;;15.40;89.50;;;;;;5053161;28;20112;-53
2022/04/25 13:22:49;;;;;;;2.53;1.90;;;15.70;88.90;;;;;;5052336;28;20119;-53
2022/04/25 13:25:19;;;;;;;2.20;2.00;;;16.10;86.50;;;;;;5048428;28;20029;-52
2022/04/25 13:27:45;;;;;;;5.20;1.80;;;16.20;85.70;;;;;;5033084;28;20489;-54
2022/04/25 13:30:13;;;;;;;2.15;1.92;;;16.20;85.20;;;;;;5045589;28;20033;-54
2022/04/25 13:32:40;;;;;;;2.22;2.03;;;16.20;87.00;;;;;;5050843;28;20031;-56